Search METAR Data

METAR Data for ENVA:

ENVA 241320Z 22004KT 9999 SCT025TCU SCT045CB 06/M02 Q1010 TEMPO 4000 SHRASN BKN012 SCT020CB RMK WIND 670FT VRB01KT